SWORD11 KLSV-KLSV
Flight info
| Callsign | SWORD11 |
|---|---|
| Flight time | N/A |
| Altitude | 40000 |
| Route | LAS CRESO GFS JOTNU TRM MZB ORDER 3226N11741W 3154N11746W 3054N11745W 3014N11746W 2942N11747W 2941N11817W 2811N12010W 2657N12143W 2553N12300W 2554N12307W 2559N12333W 2800N12512W 2559N12333W 2800N12512W 2823N12512W 2909N12341W 2932N12255W 3036N12046W 3114N12009W 3148N11936W 3211N11936W 3244N11900W NUC PYRAS OCN TRM JOTNU GFS KONNG LSV |
| Aircraft | F35C/M-SDE3RV/LB1 |
Departure
| Time | 2026-04-24 21:22 |
|---|---|
| Airport | Nellis Air Force Base (KLSV) |
Arrival
| Time | N/A |
|---|---|
| Airport | Nellis Air Force Base (KLSV) |
| Time | Latitude | Longitude | Altitude | Speed | Heading |
|---|---|---|---|---|---|
| 2026-04-24 20:53 | 36.23896 | -115.03714 | 1901 ft | 0 kts | 221° |
| 2026-04-24 21:12 | 36.23881 | -115.03730 | 1884 ft | 7 kts | 219° |
| 2026-04-24 21:13 | 36.23877 | -115.03734 | 1884 ft | 0 kts | 219° |
| 2026-04-24 21:13 | 36.23850 | -115.03725 | 1884 ft | 9 kts | 136° |
| 2026-04-24 21:13 | 36.23834 | -115.03660 | 1884 ft | 8 kts | 45° |
| 2026-04-24 21:14 | 36.23874 | -115.03617 | 1887 ft | 9 kts | 41° |
| 2026-04-24 21:14 | 36.23927 | -115.03559 | 1887 ft | 13 kts | 41° |
| 2026-04-24 21:14 | 36.24002 | -115.03478 | 1886 ft | 16 kts | 41° |
| 2026-04-24 21:14 | 36.24093 | -115.03378 | 1886 ft | 19 kts | 41° |
| 2026-04-24 21:15 | 36.24199 | -115.03265 | 1887 ft | 21 kts | 40° |
| 2026-04-24 21:15 | 36.24321 | -115.03149 | 1887 ft | 23 kts | 13° |
| 2026-04-24 21:15 | 36.24478 | -115.03138 | 1887 ft | 22 kts | 2° |
| 2026-04-24 21:15 | 36.24561 | -115.03050 | 1887 ft | 18 kts | 92° |
| 2026-04-24 21:16 | 36.24557 | -115.02897 | 1887 ft | 17 kts | 92° |
| 2026-04-24 21:16 | 36.24554 | -115.02792 | 1886 ft | 0 kts | 92° |
| 2026-04-24 21:16 | 36.24548 | -115.02787 | 1886 ft | 2 kts | 161° |
| 2026-04-24 21:17 | 36.24542 | -115.02805 | 1886 ft | 5 kts | 285° |
| 2026-04-24 21:17 | 36.24556 | -115.02901 | 1887 ft | 18 kts | 272° |
| 2026-04-24 21:17 | 36.24560 | -115.03080 | 1887 ft | 21 kts | 271° |
| 2026-04-24 21:17 | 36.24664 | -115.03130 | 1887 ft | 18 kts | 2° |
| 2026-04-24 21:18 | 36.24729 | -115.03052 | 1890 ft | 15 kts | 92° |
| 2026-04-24 21:18 | 36.24725 | -115.02929 | 1890 ft | 14 kts | 91° |
| 2026-04-24 21:18 | 36.24723 | -115.02817 | 1889 ft | 13 kts | 92° |
| 2026-04-24 21:18 | 36.24720 | -115.02713 | 1889 ft | 12 kts | 92° |
| 2026-04-24 21:19 | 36.24716 | -115.02612 | 1888 ft | 11 kts | 92° |
| 2026-04-24 21:19 | 36.24715 | -115.02564 | 1888 ft | 0 kts | 92° |
| 2026-04-24 21:20 | 36.24711 | -115.02506 | 1888 ft | 10 kts | 109° |
| 2026-04-24 21:20 | 36.24674 | -115.02508 | 1888 ft | 5 kts | 222° |
| 2026-04-24 21:21 | 36.24662 | -115.02522 | 1888 ft | 0 kts | 221° |
| 2026-04-24 21:22 | 36.24579 | -115.02612 | 1891 ft | 89 kts | 221° |
| 2026-04-24 21:22 | 36.23573 | -115.03698 | 1958 ft | 275 kts | 221° |
| 2026-04-24 21:22 | 36.21790 | -115.05639 | 3373 ft | 287 kts | 220° |
| 2026-04-24 21:23 | 36.20651 | -115.06777 | 10915 ft | 154 kts | 218° |
| 2026-04-24 21:23 | 36.19258 | -115.08172 | 15040 ft | 362 kts | 220° |
| 2026-04-24 21:23 | 36.17350 | -115.09827 | 15328 ft | 308 kts | 217° |
| 2026-04-24 21:23 | 36.15682 | -115.11159 | 15539 ft | 265 kts | 217° |
| 2026-04-24 21:24 | 36.14089 | -115.12445 | 15480 ft | 288 kts | 217° |
| 2026-04-24 21:24 | 36.12342 | -115.13907 | 15356 ft | 317 kts | 218° |
| 2026-04-24 21:24 | 36.10487 | -115.15590 | 15224 ft | 344 kts | 220° |
| 2026-04-24 21:24 | 36.08528 | -115.17494 | 15111 ft | 370 kts | 221° |
| 2026-04-24 21:25 | 36.06247 | -115.18833 | 15497 ft | 330 kts | 183° |
| 2026-04-24 21:25 | 36.04453 | -115.17695 | 17499 ft | 285 kts | 122° |
| 2026-04-24 21:25 | 36.03146 | -115.16411 | 16114 ft | 235 kts | 179° |
| 2026-04-24 21:25 | 36.01628 | -115.16141 | 15706 ft | 205 kts | 182° |
| 2026-04-24 21:26 | 36.00494 | -115.15935 | 15566 ft | 134 kts | 184° |
| 2026-04-24 21:26 | 35.99531 | -115.15763 | 14737 ft | 150 kts | 185° |
| 2026-04-24 21:26 | 35.98495 | -115.15638 | 13879 ft | 154 kts | 185° |
| 2026-04-24 21:26 | 35.96917 | -115.15582 | 13652 ft | 289 kts | 185° |
| 2026-04-24 21:27 | 35.94602 | -115.15601 | 14280 ft | 373 kts | 186° |
| 2026-04-24 21:27 | 35.91730 | -115.15695 | 15499 ft | 447 kts | 186° |
| 2026-04-24 21:27 | 35.88395 | -115.15858 | 17054 ft | 509 kts | 186° |
| 2026-04-24 21:27 | 35.85917 | -115.16005 | 17353 ft | 563 kts | 186° |
| 2026-04-24 21:28 | 35.80559 | -115.16352 | 17648 ft | 587 kts | 186° |
| 2026-04-24 21:28 | 35.76468 | -115.16617 | 17985 ft | 587 kts | 186° |
| 2026-04-24 21:28 | 35.72420 | -115.16872 | 18288 ft | 576 kts | 187° |
| 2026-04-24 21:28 | 35.68424 | -115.17115 | 18562 ft | 573 kts | 187° |
| 2026-04-24 21:29 | 35.64440 | -115.17352 | 18858 ft | 572 kts | 187° |
| 2026-04-24 21:29 | 35.60463 | -115.17582 | 19118 ft | 571 kts | 187° |
| 2026-04-24 21:29 | 35.56500 | -115.17801 | 19420 ft | 570 kts | 187° |
| 2026-04-24 21:29 | 35.52569 | -115.18011 | 19724 ft | 570 kts | 187° |
| 2026-04-24 21:30 | 35.48602 | -115.18216 | 20027 ft | 569 kts | 187° |
| 2026-04-24 21:30 | 35.44635 | -115.18415 | 20303 ft | 568 kts | 187° |
| 2026-04-24 21:30 | 35.40677 | -115.18607 | 20611 ft | 568 kts | 187° |
| 2026-04-24 21:30 | 35.36724 | -115.18794 | 20905 ft | 568 kts | 187° |
| 2026-04-24 21:31 | 35.32777 | -115.18978 | 21222 ft | 567 kts | 187° |
| 2026-04-24 21:31 | 35.28833 | -115.19156 | 21532 ft | 567 kts | 187° |
| 2026-04-24 21:31 | 35.24887 | -115.19329 | 21838 ft | 566 kts | 187° |
| 2026-04-24 21:31 | 35.20945 | -115.19497 | 22119 ft | 566 kts | 187° |
| 2026-04-24 21:32 | 35.16998 | -115.19660 | 22435 ft | 566 kts | 188° |
| 2026-04-24 21:32 | 35.13098 | -115.19817 | 22737 ft | 566 kts | 188° |
| 2026-04-24 21:32 | 35.09159 | -115.19970 | 23053 ft | 566 kts | 188° |
| 2026-04-24 21:32 | 35.05171 | -115.20119 | 23391 ft | 564 kts | 187° |
| 2026-04-24 21:33 | 35.01287 | -115.20538 | 23638 ft | 554 kts | 199° |
| 2026-04-24 21:33 | 34.98871 | -115.21440 | 23742 ft | 545 kts | 206° |
| 2026-04-24 21:33 | 34.94237 | -115.23874 | 24049 ft | 540 kts | 211° |
| 2026-04-24 21:33 | 34.90841 | -115.25835 | 24320 ft | 538 kts | 211° |
| 2026-04-24 21:34 | 34.87474 | -115.27817 | 24603 ft | 536 kts | 212° |
| 2026-04-24 21:34 | 34.84158 | -115.29769 | 24882 ft | 534 kts | 211° |
| 2026-04-24 21:34 | 34.80808 | -115.31723 | 25161 ft | 533 kts | 211° |
| 2026-04-24 21:34 | 34.70861 | -115.36247 | 25874 ft | 534 kts | 207° |
| 2026-04-24 21:35 | 34.56853 | -115.42388 | 27061 ft | 531 kts | 206° |
| 2026-04-24 21:35 | 34.43018 | -115.48423 | 28287 ft | 526 kts | 206° |
| 2026-04-24 21:35 | 34.33950 | -115.52652 | 29122 ft | 516 kts | 213° |
| 2026-04-24 21:35 | 34.18599 | -115.65702 | 30679 ft | 500 kts | 223° |
| 2026-04-24 21:36 | 34.11350 | -115.72286 | 31452 ft | 497 kts | 222° |
| 2026-04-24 21:36 | 34.00371 | -115.82236 | 32707 ft | 490 kts | 222° |
| 2026-04-24 21:36 | 33.89561 | -115.91997 | 34008 ft | 481 kts | 222° |
| 2026-04-24 21:36 | 33.78862 | -116.01627 | 35149 ft | 480 kts | 223° |
| 2026-04-24 21:37 | 33.68161 | -116.11229 | 36399 ft | 478 kts | 223° |
| 2026-04-24 21:37 | 33.58360 | -116.21689 | 37623 ft | 464 kts | 234° |
| 2026-04-24 21:37 | 33.49523 | -116.32964 | 38836 ft | 462 kts | 232° |
| 2026-04-24 21:37 | 33.40700 | -116.44172 | 39796 ft | 466 kts | 232° |
| 2026-04-24 21:38 | 33.31731 | -116.55530 | 39894 ft | 472 kts | 232° |
| 2026-04-24 21:38 | 33.13688 | -116.78266 | 39943 ft | 472 kts | 232° |
| 2026-04-24 21:39 | 32.95687 | -117.00807 | 39981 ft | 470 kts | 232° |
| 2026-04-24 21:39 | 32.78656 | -117.24246 | 39937 ft | 455 kts | 253° |
| 2026-04-24 21:40 | 32.74468 | -117.53776 | 39993 ft | 454 kts | 262° |
| 2026-04-24 21:40 | 32.72492 | -117.68629 | 39939 ft | 455 kts | 251° |
| 2026-04-24 21:40 | 32.61590 | -117.75592 | 39821 ft | 534 kts | 179° |
| 2026-04-24 21:41 | 32.39759 | -117.68676 | 39923 ft | 507 kts | 199° |
| 2026-04-24 21:41 | 32.28024 | -117.70728 | 39983 ft | 510 kts | 198° |
| 2026-04-24 21:42 | 32.13872 | -117.72949 | 39989 ft | 513 kts | 197° |
| 2026-04-24 21:42 | 31.99714 | -117.75154 | 39977 ft | 512 kts | 197° |
| 2026-04-24 21:43 | 31.85438 | -117.76691 | 39976 ft | 528 kts | 187° |
| 2026-04-24 21:43 | 31.70857 | -117.76332 | 39982 ft | 524 kts | 190° |
| 2026-04-24 21:44 | 31.56210 | -117.76103 | 40002 ft | 526 kts | 189° |
| 2026-04-24 21:44 | 31.41571 | -117.75854 | 40006 ft | 525 kts | 189° |
| 2026-04-24 21:45 | 31.26996 | -117.75613 | 39974 ft | 525 kts | 189° |
| 2026-04-24 21:45 | 31.12533 | -117.75373 | 40003 ft | 525 kts | 189° |
| 2026-04-24 21:46 | 30.97869 | -117.75130 | 40008 ft | 524 kts | 189° |
| 2026-04-24 21:46 | 30.83415 | -117.75185 | 40003 ft | 522 kts | 190° |
| 2026-04-24 21:47 | 30.69032 | -117.75523 | 40010 ft | 519 kts | 191° |
| 2026-04-24 21:47 | 30.59317 | -117.75768 | 40017 ft | 520 kts | 191° |